Time;durP1;ratioP1;P1;durP2;ratioP2;P2;SDS_P1;SDS_P2;PMS_P1;PMS_P2;Temp;Humidity;BMP_temperature;BMP_pressure;BME280_temperature;BME280_humidity;BME280_pressure;Samples;Min_cycle;Max_cycle;Signal;HPM_P1;HPM_P2
2021/12/28 00:00:59;;;;;;;12.73;12.23;;;8.50;99.90;;;;;;5051503;28;20516;-77
2021/12/28 00:03:27;;;;;;;13.60;12.90;;;8.40;99.90;;;;;;5051206;28;20448;-76
2021/12/28 00:05:54;;;;;;;14.00;13.40;;;8.50;99.90;;;;;;5051300;28;20901;-77
2021/12/28 00:08:20;;;;;;;13.60;12.90;;;8.50;99.90;;;;;;5051428;28;20807;-76
2021/12/28 00:10:48;;;;;;;12.80;12.10;;;8.50;99.90;;;;;;5051456;28;20507;-76
2021/12/28 00:13:16;;;;;;;13.77;12.93;;;8.60;99.90;;;;;;5051225;28;20448;-77
2021/12/28 00:15:49;;;;;;;12.57;11.97;;;8.70;99.90;;;;;;5051430;28;20459;-77
2021/12/28 00:18:16;;;;;;;13.33;12.53;;;8.90;99.90;;;;;;5051235;28;20451;-76
2021/12/28 00:20:47;;;;;;;12.67;11.87;;;9.10;99.90;;;;;;5051207;28;20474;-76
2021/12/28 00:23:17;;;;;;;13.10;12.20;;;9.30;99.90;;;;;;5051183;28;20460;-76
2021/12/28 00:25:44;;;;;;;12.70;12.10;;;9.30;99.90;;;;;;5051319;28;20456;-76
2021/12/28 00:28:11;;;;;;;12.67;12.20;;;9.40;99.90;;;;;;5051226;28;20475;-77
2021/12/28 00:30:38;;;;;;;12.30;11.73;;;9.30;99.90;;;;;;5050857;28;20487;-76
2021/12/28 00:33:06;;;;;;;12.50;11.90;;;9.30;99.90;;;;;;5050907;28;20460;-77
2021/12/28 00:35:35;;;;;;;12.93;12.10;;;9.30;99.90;;;;;;5051253;28;20473;-76
2021/12/28 00:38:05;;;;;;;11.90;11.20;;;9.40;99.90;;;;;;5050977;28;20968;-76
2021/12/28 00:40:32;;;;;;;12.63;11.70;;;9.40;99.90;;;;;;5050958;28;20454;-78
2021/12/28 00:43:00;;;;;;;12.60;11.80;;;9.40;99.90;;;;;;5050658;28;20455;-76
2021/12/28 00:45:27;;;;;;;12.40;11.90;;;9.40;99.90;;;;;;5050924;28;20458;-76
2021/12/28 00:47:53;;;;;;;11.80;11.20;;;9.40;99.90;;;;;;5050489;28;20482;-75
2021/12/28 00:50:21;;;;;;;13.40;12.40;;;9.30;99.90;;;;;;5050798;28;20488;-76
2021/12/28 00:52:49;;;;;;;13.20;12.40;;;9.30;99.90;;;;;;5050988;28;20454;-75
2021/12/28 00:55:18;;;;;;;11.80;11.40;;;9.20;99.90;;;;;;5050178;28;20448;-76
2021/12/28 00:57:45;;;;;;;12.57;11.50;;;9.20;99.90;;;;;;5051052;28;20440;-75
2021/12/28 01:00:15;;;;;;;13.03;12.40;;;8.90;99.90;;;;;;5050609;28;20501;-75
2021/12/28 01:02:42;;;;;;;13.50;12.57;;;8.70;99.90;;;;;;5050528;28;20949;-76
2021/12/28 01:05:10;;;;;;;13.90;12.83;;;8.50;99.90;;;;;;5050716;28;20451;-77
2021/12/28 01:07:37;;;;;;;13.80;12.90;;;8.40;99.90;;;;;;5050565;28;20486;-76
2021/12/28 01:10:07;;;;;;;13.87;13.17;;;8.20;99.90;;;;;;5050529;28;20533;-78
2021/12/28 01:12:36;;;;;;;13.60;12.80;;;8.10;99.90;;;;;;5050578;28;20444;-78
2021/12/28 01:15:06;;;;;;;12.40;11.90;;;8.00;99.90;;;;;;5050679;28;21056;-77
2021/12/28 01:17:33;;;;;;;13.50;12.90;;;7.90;99.90;;;;;;5050867;28;20455;-79
2021/12/28 01:19:59;;;;;;;13.30;12.70;;;7.90;99.90;;;;;;5050275;28;20819;-78
2021/12/28 01:22:26;;;;;;;13.80;12.73;;;7.90;99.90;;;;;;5050357;28;20447;-79
2021/12/28 01:24:53;;;;;;;13.33;12.63;;;7.80;99.90;;;;;;5050524;28;20455;-79
2021/12/28 01:27:20;;;;;;;14.07;13.17;;;7.80;99.90;;;;;;5050557;28;20444;-76
2021/12/28 01:29:48;;;;;;;14.30;13.40;;;7.80;99.90;;;;;;5050192;28;20488;-76
2021/12/28 01:32:15;;;;;;;13.57;12.87;;;7.90;99.90;;;;;;5050304;28;20451;-76
2021/12/28 01:34:43;;;;;;;14.90;13.83;;;7.90;99.90;;;;;;5050346;28;20448;-76
2021/12/28 01:37:10;;;;;;;13.20;12.60;;;7.80;99.90;;;;;;5050584;28;20505;-76
2021/12/28 01:39:37;;;;;;;12.80;12.20;;;7.80;99.90;;;;;;5050290;28;20455;-75
2021/12/28 01:42:05;;;;;;;13.53;12.60;;;7.80;99.90;;;;;;5050400;28;20459;-76
2021/12/28 01:44:33;;;;;;;12.90;12.27;;;7.80;99.90;;;;;;5050346;28;20488;-76
2021/12/28 01:47:01;;;;;;;13.07;12.47;;;7.80;99.90;;;;;;5050133;28;20476;-76
2021/12/28 01:49:28;;;;;;;12.43;11.93;;;7.90;99.90;;;;;;5050117;28;20488;-76
2021/12/28 01:51:56;;;;;;;13.77;12.90;;;7.90;99.90;;;;;;5050059;28;20456;-76
2021/12/28 01:54:23;;;;;;;13.83;12.90;;;7.90;99.90;;;;;;5050081;28;20456;-75
2021/12/28 01:56:50;;;;;;;12.50;12.10;;;7.80;99.90;;;;;;5050288;28;20447;-75
2021/12/28 01:59:19;;;;;;;13.30;12.80;;;7.80;99.90;;;;;;5050329;28;20459;-75
2021/12/28 02:01:47;;;;;;;13.13;12.53;;;7.70;99.90;;;;;;5050202;28;20454;-75
2021/12/28 02:04:17;;;;;;;13.83;13.13;;;7.70;99.90;;;;;;5049950;28;20455;-76
2021/12/28 02:06:44;;;;;;;13.40;12.80;;;7.60;99.90;;;;;;5050631;28;20502;-75
2021/12/28 02:09:11;;;;;;;13.70;12.90;;;7.50;99.90;;;;;;5053553;28;20797;-75
2021/12/28 02:11:38;;;;;;;14.37;13.67;;;7.50;99.90;;;;;;5053557;28;20506;-76
2021/12/28 02:14:07;;;;;;;13.60;12.90;;;7.40;99.90;;;;;;5053632;28;20451;-76
2021/12/28 02:16:35;;;;;;;14.67;13.87;;;7.40;99.90;;;;;;5053623;28;20451;-77
2021/12/28 02:19:02;;;;;;;14.57;13.50;;;7.40;99.90;;;;;;5053290;28;20569;-78
2021/12/28 02:21:31;;;;;;;13.53;12.80;;;7.40;99.90;;;;;;5053491;28;20546;-77
2021/12/28 02:23:58;;;;;;;13.10;12.50;;;7.40;99.90;;;;;;5053595;28;20566;-77
2021/12/28 02:26:25;;;;;;;13.30;12.60;;;7.40;99.90;;;;;;5053541;28;20851;-76
2021/12/28 02:28:52;;;;;;;13.73;13.00;;;7.40;99.90;;;;;;5053189;28;20973;-76
2021/12/28 02:31:19;;;;;;;15.93;14.80;;;7.40;99.90;;;;;;5053262;28;20864;-75
2021/12/28 02:33:48;;;;;;;14.43;13.53;;;7.40;99.90;;;;;;5045172;28;20447;-76
2021/12/28 02:36:16;;;;;;;16.17;14.93;;;7.40;99.90;;;;;;5053043;28;21025;-76
2021/12/28 02:38:45;;;;;;;14.00;13.10;;;7.40;99.90;;;;;;5052969;28;20789;-76
2021/12/28 02:41:12;;;;;;;14.67;13.77;;;7.40;99.90;;;;;;5052955;28;20459;-76
2021/12/28 02:43:41;;;;;;;14.93;13.83;;;7.40;99.90;;;;;;5053070;28;20550;-76
2021/12/28 02:46:09;;;;;;;14.43;13.63;;;7.40;99.90;;;;;;5053054;28;20466;-76
2021/12/28 02:48:37;;;;;;;14.30;13.47;;;7.40;99.90;;;;;;5052841;28;20878;-76
2021/12/28 02:51:07;;;;;;;19.93;14.80;;;7.40;99.90;;;;;;5052587;28;20545;-75
2021/12/28 02:53:34;;;;;;;14.47;13.67;;;7.30;99.90;;;;;;5052992;28;20451;-75
2021/12/28 02:56:03;;;;;;;15.20;14.13;;;7.30;99.90;;;;;;5053064;28;20937;-76
2021/12/28 02:58:33;;;;;;;14.70;13.60;;;7.30;99.90;;;;;;5052779;28;20462;-75
2021/12/28 03:01:04;;;;;;;15.37;14.23;;;7.30;99.90;;;;;;5053106;28;20476;-75
2021/12/28 03:03:32;;;;;;;14.73;14.00;;;7.30;99.90;;;;;;5052640;28;20450;-76
2021/12/28 03:06:01;;;;;;;16.07;15.07;;;7.40;99.90;;;;;;5052591;28;20461;-76
2021/12/28 03:08:29;;;;;;;13.97;13.37;;;7.40;99.90;;;;;;5052483;28;20506;-76
2021/12/28 03:10:57;;;;;;;14.10;13.50;;;7.40;99.90;;;;;;5052421;28;20514;-76
2021/12/28 03:13:27;;;;;;;14.20;13.10;;;7.40;99.90;;;;;;5052468;28;20452;-75
2021/12/28 03:15:55;;;;;;;15.90;14.50;;;7.40;99.90;;;;;;5052361;28;20914;-76
2021/12/28 03:18:22;;;;;;;14.63;13.70;;;7.40;99.90;;;;;;5051829;28;20452;-76
2021/12/28 03:20:48;;;;;;;14.20;13.50;;;7.50;99.90;;;;;;5052321;28;20844;-75
2021/12/28 03:23:17;;;;;;;16.07;14.60;;;7.50;99.90;;;;;;5052117;28;20455;-75
2021/12/28 03:25:44;;;;;;;15.83;14.23;;;7.50;99.90;;;;;;5052252;28;20451;-76
2021/12/28 03:28:16;;;;;;;16.00;15.23;;;7.60;99.90;;;;;;5052073;28;20955;-76
2021/12/28 03:30:44;;;;;;;13.80;13.10;;;7.60;99.90;;;;;;5051807;28;20491;-76
2021/12/28 03:33:11;;;;;;;13.80;12.80;;;7.60;99.90;;;;;;5052058;28;20440;-77
2021/12/28 03:35:38;;;;;;;15.60;14.17;;;7.70;99.90;;;;;;5051846;28;20479;-76
2021/12/28 03:38:05;;;;;;;14.67;13.53;;;7.70;99.90;;;;;;5052039;28;20853;-75
2021/12/28 03:40:32;;;;;;;13.80;13.03;;;7.70;99.90;;;;;;5051935;28;20838;-77
2021/12/28 03:42:59;;;;;;;14.10;13.13;;;7.70;99.90;;;;;;5051794;28;20452;-76
2021/12/28 03:45:26;;;;;;;14.60;13.47;;;7.80;99.90;;;;;;5051887;28;20478;-76
2021/12/28 03:47:54;;;;;;;14.00;13.30;;;7.80;99.90;;;;;;5051451;28;20515;-76
2021/12/28 03:50:25;;;;;;;14.57;13.50;;;7.80;99.90;;;;;;5051688;28;20487;-76
2021/12/28 03:52:52;;;;;;;14.80;13.70;;;7.80;99.90;;;;;;5051606;28;20463;-77
2021/12/28 03:55:19;;;;;;;15.77;14.40;;;7.80;99.90;;;;;;5051716;28;20451;-78
2021/12/28 03:57:46;;;;;;;13.47;12.60;;;7.80;99.90;;;;;;5051760;28;20451;-76
2021/12/28 04:00:16;;;;;;;13.73;12.90;;;7.90;99.90;;;;;;5051412;28;20454;-76
2021/12/28 04:02:42;;;;;;;14.80;13.43;;;8.00;99.90;;;;;;5051494;28;20485;-77
2021/12/28 04:05:11;;;;;;;14.83;13.57;;;8.00;99.90;;;;;;5051602;28;20444;-79
2021/12/28 04:07:39;;;;;;;15.13;14.03;;;8.00;99.90;;;;;;5051084;28;20459;-79
2021/12/28 04:10:09;;;;;;;14.37;13.23;;;8.00;99.90;;;;;;5051469;28;20455;-80
2021/12/28 04:12:36;;;;;;;13.70;12.90;;;8.00;99.90;;;;;;5051326;28;20926;-79
2021/12/28 04:15:04;;;;;;;13.90;13.10;;;8.00;99.90;;;;;;5051167;28;20448;-79
2021/12/28 04:17:33;;;;;;;14.37;13.13;;;8.00;99.90;;;;;;5051460;28;20534;-78
2021/12/28 04:20:00;;;;;;;13.80;13.10;;;8.00;99.90;;;;;;5051055;28;20448;-78
2021/12/28 04:22:28;;;;;;;13.87;13.13;;;8.00;99.90;;;;;;5050970;28;20448;-78
2021/12/28 04:24:55;;;;;;;12.73;12.10;;;8.00;99.90;;;;;;5051098;28;20443;-78
2021/12/28 04:27:22;;;;;;;14.83;13.87;;;8.00;99.90;;;;;;5051165;28;20440;-78
2021/12/28 04:29:48;;;;;;;14.83;13.73;;;8.00;99.90;;;;;;5050360;28;20447;-78
2021/12/28 04:32:15;;;;;;;14.50;13.47;;;8.00;99.90;;;;;;5051027;28;21062;-78
2021/12/28 04:34:43;;;;;;;14.00;13.10;;;7.90;99.90;;;;;;5051116;28;20456;-80
2021/12/28 04:37:09;;;;;;;16.07;15.17;;;8.00;99.90;;;;;;5051046;28;20444;-79
2021/12/28 04:39:38;;;;;;;16.73;15.87;;;8.00;99.90;;;;;;5051124;28;20941;-78
2021/12/28 04:42:05;;;;;;;17.03;16.17;;;8.00;99.90;;;;;;5051135;28;20447;-77
2021/12/28 04:44:32;;;;;;;19.37;18.10;;;7.90;99.90;;;;;;5050776;28;20440;-76
2021/12/28 04:46:59;;;;;;;20.43;19.07;;;7.90;99.90;;;;;;5050700;28;20559;-75
2021/12/28 04:49:28;;;;;;;21.10;19.67;;;7.90;99.90;;;;;;5050688;28;20972;-77
2021/12/28 04:51:55;;;;;;;20.27;19.10;;;7.90;99.90;;;;;;5050684;28;20542;-76
2021/12/28 04:54:23;;;;;;;22.07;20.77;;;7.90;99.90;;;;;;5050483;28;20451;-77
2021/12/28 04:56:51;;;;;;;23.47;22.27;;;7.90;99.90;;;;;;5050791;28;20498;-76
2021/12/28 04:59:19;;;;;;;25.57;23.83;;;7.90;99.90;;;;;;5050813;28;20459;-78
2021/12/28 05:01:46;;;;;;;25.23;24.00;;;7.90;99.90;;;;;;5050469;28;20452;-78
2021/12/28 05:04:13;;;;;;;26.27;24.23;;;8.00;99.90;;;;;;5050661;28;20448;-77
2021/12/28 05:06:40;;;;;;;25.50;24.30;;;8.00;99.90;;;;;;5050658;28;20483;-76
2021/12/28 05:09:09;;;;;;;24.60;23.40;;;8.00;99.90;;;;;;5050641;28;20857;-77
2021/12/28 05:11:36;;;;;;;28.23;26.93;;;8.00;99.90;;;;;;5050604;28;20491;-78
2021/12/28 05:14:06;;;;;;;28.33;26.80;;;8.00;99.90;;;;;;5050587;28;20513;-77
2021/12/28 05:16:33;;;;;;;26.70;25.30;;;7.90;99.90;;;;;;5050887;28;20455;-79
2021/12/28 05:19:01;;;;;;;25.73;24.53;;;7.90;99.90;;;;;;5050516;28;20452;-79
2021/12/28 05:21:28;;;;;;;27.07;25.50;;;7.90;99.90;;;;;;5050540;28;20444;-79
2021/12/28 05:23:55;;;;;;;26.50;25.30;;;8.00;99.90;;;;;;5050191;28;20450;-79
2021/12/28 05:26:21;;;;;;;27.37;25.53;;;7.90;99.90;;;;;;5050406;28;20977;-81
2021/12/28 05:28:48;;;;;;;26.83;25.53;;;8.00;99.90;;;;;;5050489;28;20460;-81
2021/12/28 05:31:16;;;;;;;28.17;26.17;;;8.00;99.90;;;;;;5050653;28;20574;-81
2021/12/28 05:33:43;;;;;;;26.80;25.53;;;8.00;99.90;;;;;;5050634;28;20467;-81
2021/12/28 05:36:10;;;;;;;25.50;23.97;;;8.00;99.90;;;;;;5050500;28;20467;-81
2021/12/28 05:38:37;;;;;;;27.13;25.53;;;7.90;99.90;;;;;;5050463;28;20459;-81
2021/12/28 05:41:06;;;;;;;24.90;23.80;;;7.90;99.90;;;;;;5051700;28;20934;-81
2021/12/28 05:43:33;;;;;;;26.07;24.77;;;8.00;99.90;;;;;;5054346;28;20451;-78
2021/12/28 05:46:00;;;;;;;25.97;24.67;;;7.90;99.90;;;;;;5054221;28;20535;-80
2021/12/28 05:48:28;;;;;;;26.07;24.63;;;8.00;99.90;;;;;;5053918;28;20483;-81
2021/12/28 05:50:55;;;;;;;25.90;24.70;;;8.00;99.90;;;;;;5053838;28;20646;-81
2021/12/28 05:53:21;;;;;;;26.10;24.70;;;8.00;99.90;;;;;;5054023;28;20455;-78
2021/12/28 05:55:48;;;;;;;26.57;24.87;;;8.10;99.90;;;;;;5054166;28;20452;-77
2021/12/28 05:58:15;;;;;;;26.60;25.33;;;8.10;99.90;;;;;;5053674;28;20443;-77
2021/12/28 06:00:42;;;;;;;26.83;25.13;;;8.10;99.90;;;;;;5053667;28;20556;-77
2021/12/28 06:03:09;;;;;;;26.17;24.67;;;8.10;99.90;;;;;;5053745;28;20933;-79
2021/12/28 06:05:37;;;;;;;26.97;25.53;;;8.10;99.90;;;;;;5053720;28;20454;-79
2021/12/28 06:08:04;;;;;;;26.57;25.37;;;8.20;99.90;;;;;;5053846;28;20942;-79
2021/12/28 06:10:31;;;;;;;28.93;27.57;;;8.20;99.90;;;;;;5054257;28;20444;-79
2021/12/28 06:12:57;;;;;;;27.50;26.00;;;8.30;99.90;;;;;;5054032;28;20459;-75
2021/12/28 06:15:24;;;;;;;27.50;26.13;;;8.30;99.90;;;;;;5053446;28;20459;-77
2021/12/28 06:17:51;;;;;;;27.20;25.90;;;8.30;99.90;;;;;;5053538;28;20964;-78
2021/12/28 06:20:18;;;;;;;27.57;26.20;;;8.30;99.90;;;;;;5053659;28;20448;-78
2021/12/28 06:22:46;;;;;;;27.60;26.10;;;8.20;99.90;;;;;;5053312;28;20452;-76
2021/12/28 06:25:13;;;;;;;28.00;26.50;;;8.20;99.90;;;;;;5053401;28;20440;-76
2021/12/28 06:27:40;;;;;;;28.30;27.10;;;8.20;99.90;;;;;;5053286;28;20456;-76
2021/12/28 06:30:08;;;;;;;26.87;25.57;;;8.20;99.90;;;;;;5053375;28;20451;-77
2021/12/28 06:32:35;;;;;;;27.37;25.97;;;8.20;99.90;;;;;;5053330;28;20484;-77
2021/12/28 06:35:02;;;;;;;27.23;25.90;;;8.30;99.90;;;;;;5053423;28;20472;-76
2021/12/28 06:37:28;;;;;;;27.40;26.20;;;8.40;99.90;;;;;;5052763;28;20452;-76
2021/12/28 06:39:56;;;;;;;26.60;25.20;;;8.40;99.90;;;;;;5053117;28;20455;-76
2021/12/28 06:42:23;;;;;;;26.07;24.97;;;8.40;99.90;;;;;;5053313;28;20467;-77
2021/12/28 06:44:52;;;;;;;26.23;25.03;;;8.50;99.90;;;;;;5053140;28;20976;-77
2021/12/28 06:47:19;;;;;;;26.80;25.40;;;8.60;99.90;;;;;;5052897;28;20495;-78
2021/12/28 06:49:45;;;;;;;25.53;24.23;;;8.60;99.90;;;;;;5052966;28;20452;-79
2021/12/28 06:52:12;;;;;;;25.40;24.30;;;8.70;99.90;;;;;;5052208;28;20856;-80
2021/12/28 06:54:39;;;;;;;26.00;24.80;;;8.70;99.90;;;;;;5052613;28;20452;-79
2021/12/28 06:57:10;;;;;;;23.90;22.90;;;8.70;99.90;;;;;;5052948;28;20529;-78
2021/12/28 06:59:38;;;;;;;24.83;23.63;;;8.80;99.90;;;;;;5052671;28;20440;-78
2021/12/28 07:02:05;;;;;;;24.10;23.20;;;8.80;99.90;;;;;;5052754;28;20786;-79
2021/12/28 07:04:32;;;;;;;23.77;22.77;;;8.80;99.90;;;;;;5052931;28;20448;-79
2021/12/28 07:06:58;;;;;;;22.87;21.97;;;8.80;99.90;;;;;;5052581;28;20796;-79
2021/12/28 07:09:25;;;;;;;24.23;22.53;;;8.70;99.90;;;;;;5052413;28;20949;-79
2021/12/28 07:11:52;;;;;;;23.13;22.23;;;8.70;99.90;;;;;;5052383;28;20545;-85
2021/12/28 07:14:20;;;;;;;23.00;21.83;;;8.70;99.90;;;;;;5052883;28;20452;-85
2021/12/28 07:16:46;;;;;;;22.47;21.50;;;8.70;99.90;;;;;;5044751;28;20448;-82
2021/12/28 07:19:13;;;;;;;20.60;19.90;;;8.60;99.90;;;;;;5052316;28;20459;-84
2021/12/28 07:21:41;;;;;;;21.77;20.60;;;8.60;99.90;;;;;;5052689;28;20460;-82
2021/12/28 07:24:10;;;;;;;20.90;20.00;;;8.60;99.90;;;;;;5052152;28;20492;-80
2021/12/28 07:26:37;;;;;;;20.47;19.60;;;8.70;99.90;;;;;;5052277;28;20498;-78
2021/12/28 07:29:05;;;;;;;19.63;18.63;;;8.80;99.90;;;;;;5052079;28;20448;-79
2021/12/28 07:31:34;;;;;;;19.30;18.40;;;8.80;99.90;;;;;;5051746;28;20487;-77
2021/12/28 07:34:01;;;;;;;18.57;17.77;;;8.90;99.90;;;;;;5051850;28;20791;-78
2021/12/28 07:36:27;;;;;;;18.13;17.43;;;9.00;99.90;;;;;;5051831;28;20474;-80
2021/12/28 07:38:54;;;;;;;18.27;17.20;;;9.00;99.90;;;;;;5052104;28;20456;-80
2021/12/28 07:41:22;;;;;;;16.23;15.53;;;9.10;99.90;;;;;;5063391;28;20445;-81
2021/12/28 07:43:49;;;;;;;16.20;15.50;;;9.30;99.90;;;;;;5055586;28;20468;-80
2021/12/28 07:46:16;;;;;;;15.90;15.30;;;9.30;99.90;;;;;;5051844;28;20454;-80
2021/12/28 07:48:44;;;;;;;16.67;15.97;;;9.40;99.90;;;;;;5052042;28;20487;-81
2021/12/28 07:51:11;;;;;;;15.07;14.47;;;9.50;99.90;;;;;;5051764;28;20997;-81
2021/12/28 07:53:37;;;;;;;13.60;13.00;;;9.80;99.90;;;;;;5051703;28;20452;-82
2021/12/28 07:56:04;;;;;;;13.40;13.00;;;10.10;99.90;;;;;;5052223;28;20456;-84
2021/12/28 07:58:31;;;;;;;13.10;12.70;;;10.20;99.90;;;;;;5052459;28;20444;-87
2021/12/28 08:00:58;;;;;;;13.43;12.83;;;10.20;99.90;;;;;;5052055;28;20462;-79
2021/12/28 08:03:25;;;;;;;13.40;12.90;;;10.20;99.90;;;;;;5051091;28;20474;-79
2021/12/28 08:05:54;;;;;;;13.20;12.60;;;10.30;99.90;;;;;;5051351;28;20456;-80
2021/12/28 08:08:20;;;;;;;12.70;12.30;;;10.40;99.90;;;;;;5051298;28;20449;-79
2021/12/28 08:10:47;;;;;;;11.73;11.07;;;10.40;99.90;;;;;;5051156;28;21006;-79
2021/12/28 08:13:16;;;;;;;12.10;11.70;;;10.50;99.90;;;;;;5051038;28;20555;-79
2021/12/28 08:15:43;;;;;;;14.30;13.70;;;10.50;99.90;;;;;;5051375;28;20456;-81
2021/12/28 08:18:10;;;;;;;15.30;14.80;;;10.50;99.90;;;;;;5051004;28;20984;-76
2021/12/28 08:20:38;;;;;;;19.47;18.87;;;10.40;99.90;;;;;;5051058;28;20476;-75
2021/12/28 08:23:06;;;;;;;18.47;17.87;;;10.30;99.90;;;;;;5051312;28;20452;-78
2021/12/28 08:25:33;;;;;;;20.70;20.00;;;10.20;99.90;;;;;;5051193;28;20487;-74
2021/12/28 08:28:04;;;;;;;21.70;20.90;;;10.20;99.90;;;;;;5051294;28;20523;-78
2021/12/28 08:30:34;;;;;;;18.80;18.20;;;10.10;99.90;;;;;;5051238;28;20459;-78
2021/12/28 08:33:02;;;;;;;19.40;18.70;;;10.10;99.90;;;;;;5052139;28;20818;-83
2021/12/28 08:35:30;;;;;;;18.70;18.10;;;10.10;99.90;;;;;;5051476;28;20564;-81
2021/12/28 08:37:56;;;;;;;19.47;18.87;;;10.20;99.90;;;;;;5051468;28;20548;-82
2021/12/28 08:40:26;;;;;;;19.90;19.20;;;10.30;99.90;;;;;;5051019;28;20448;-82
2021/12/28 08:42:53;;;;;;;18.00;17.40;;;10.30;99.90;;;;;;5050952;28;20476;-80
2021/12/28 08:45:20;;;;;;;18.47;17.87;;;10.30;99.90;;;;;;5050672;28;20456;-79
2021/12/28 08:47:47;;;;;;;17.53;16.93;;;10.40;99.90;;;;;;5050421;28;20486;-79
2021/12/28 08:50:14;;;;;;;16.70;16.17;;;10.50;99.90;;;;;;5050426;28;20452;-80
2021/12/28 08:52:41;;;;;;;15.27;14.80;;;10.60;99.90;;;;;;5050523;28;20492;-81
2021/12/28 08:55:09;;;;;;;14.67;14.20;;;10.60;99.90;;;;;;5050717;28;20818;-82
2021/12/28 08:57:37;;;;;;;14.67;14.17;;;10.70;99.90;;;;;;5050564;28;20877;-81
2021/12/28 09:00:06;;;;;;;12.60;12.20;;;10.90;99.90;;;;;;5051099;28;20538;-81
2021/12/28 09:02:33;;;;;;;12.37;11.87;;;11.00;99.90;;;;;;5050724;28;20459;-82
2021/12/28 09:05:00;;;;;;;12.47;12.00;;;11.00;99.90;;;;;;5050582;28;20822;-84
2021/12/28 09:07:26;;;;;;;12.40;12.00;;;11.10;99.90;;;;;;5050788;28;20988;-83
2021/12/28 09:09:53;;;;;;;12.10;11.70;;;11.10;99.90;;;;;;5050619;28;20857;-84
2021/12/28 09:12:20;;;;;;;12.30;11.90;;;11.20;99.90;;;;;;5044153;28;20483;-84
2021/12/28 09:14:48;;;;;;;11.30;11.00;;;11.40;99.90;;;;;;5030897;28;20452;-85
2021/12/28 09:17:15;;;;;;;12.83;12.40;;;11.50;99.90;;;;;;5034140;28;20453;-84
2021/12/28 09:19:42;;;;;;;12.10;11.70;;;11.40;99.90;;;;;;5034653;28;20455;-82
2021/12/28 09:22:10;;;;;;;12.37;11.97;;;11.30;99.90;;;;;;5039172;28;20444;-85
2021/12/28 09:24:37;;;;;;;11.50;10.90;;;11.30;99.90;;;;;;5037364;28;20453;-85
2021/12/28 09:27:04;;;;;;;12.10;11.47;;;11.30;99.90;;;;;;5034007;28;20503;-86
2021/12/28 09:29:31;;;;;;;11.77;11.37;;;11.50;99.90;;;;;;5034769;28;20934;-85
2021/12/28 09:32:01;;;;;;;11.83;11.43;;;11.70;99.90;;;;;;5034939;28;20909;-84
2021/12/28 09:34:28;;;;;;;11.10;10.70;;;11.90;99.90;;;;;;5034650;28;20453;-85
2021/12/28 09:36:56;;;;;;;11.80;11.40;;;12.00;99.90;;;;;;5034606;28;20479;-83
2021/12/28 09:39:26;;;;;;;11.10;10.80;;;12.20;99.90;;;;;;5034516;28;20444;-83
2021/12/28 09:41:53;;;;;;;10.50;10.20;;;12.30;99.90;;;;;;5034219;28;20452;-82
2021/12/28 09:44:20;;;;;;;10.43;10.03;;;12.30;99.90;;;;;;5034323;28;20464;-82
2021/12/28 09:46:47;;;;;;;10.70;10.40;;;12.20;99.90;;;;;;5034024;28;20481;-81
2021/12/28 09:49:15;;;;;;;10.90;10.60;;;12.20;99.90;;;;;;5034242;28;20457;-82
2021/12/28 09:51:42;;;;;;;10.87;10.57;;;12.20;99.90;;;;;;5033799;28;20463;-80
2021/12/28 09:54:09;;;;;;;11.13;10.83;;;12.30;99.90;;;;;;5033917;28;20824;-81
2021/12/28 09:56:36;;;;;;;11.53;11.13;;;12.20;99.90;;;;;;5034109;28;20464;-80
2021/12/28 09:59:03;;;;;;;11.90;11.50;;;12.20;99.90;;;;;;5033978;28;20453;-80
2021/12/28 10:01:30;;;;;;;11.30;10.90;;;12.30;99.90;;;;;;5033942;28;20451;-80
2021/12/28 10:03:57;;;;;;;11.53;11.23;;;12.30;99.90;;;;;;5033716;28;20483;-80
2021/12/28 10:06:28;;;;;;;11.47;11.17;;;12.30;99.90;;;;;;5033596;28;20512;-79
2021/12/28 10:09:05;;;;;;;11.90;11.50;;;12.40;99.90;;;;;;5031978;28;20456;-78
2021/12/28 10:11:33;;;;;;;11.33;11.03;;;12.50;99.90;;;;;;5033305;28;20806;-79
2021/12/28 10:14:14;;;;;;;11.83;11.43;;;12.70;99.90;;;;;;5031312;28;20492;-79
2021/12/28 10:16:46;;;;;;;11.57;11.20;;;12.80;99.90;;;;;;5031667;28;21257;-79
2021/12/28 10:19:34;;;;;;;11.80;11.40;;;12.70;99.90;;;;;;5033062;28;20444;-78
2021/12/28 10:22:33;;;;;;;11.90;11.50;;;13.00;99.90;;;;;;5033548;28;20539;-78
2021/12/28 10:25:03;;;;;;;11.20;10.87;;;13.10;99.90;;;;;;5033261;28;20456;-78
2021/12/28 10:27:32;;;;;;;11.97;11.40;;;13.10;99.90;;;;;;5032223;28;20456;-77
2021/12/28 10:30:07;;;;;;;11.20;10.90;;;13.20;99.90;;;;;;5033314;28;20460;-78
2021/12/28 10:32:35;;;;;;;11.90;11.40;;;13.20;99.90;;;;;;5033377;28;20847;-77
2021/12/28 10:35:06;;;;;;;11.90;11.50;;;13.20;99.90;;;;;;5033329;28;20560;-77
2021/12/28 10:37:36;;;;;;;11.30;11.00;;;12.90;99.90;;;;;;5033365;28;20834;-76
2021/12/28 10:40:05;;;;;;;12.20;11.70;;;12.90;99.90;;;;;;5033389;28;20464;-77
2021/12/28 10:42:45;;;;;;;11.50;11.10;;;12.90;99.90;;;;;;5033130;28;20460;-77
2021/12/28 10:45:14;;;;;;;12.20;11.80;;;13.10;99.90;;;;;;5032915;28;20440;-77
2021/12/28 10:47:40;;;;;;;12.27;11.87;;;13.20;99.90;;;;;;5032884;28;20483;-78
2021/12/28 10:50:22;;;;;;;11.27;10.97;;;13.50;99.90;;;;;;5033018;28;20464;-79
2021/12/28 10:52:52;;;;;;;11.90;11.60;;;14.00;99.90;;;;;;5033176;28;20489;-76
2021/12/28 10:55:22;;;;;;;12.00;11.60;;;14.30;99.90;;;;;;5032991;28;20523;-76
2021/12/28 10:57:49;;;;;;;11.70;11.40;;;14.20;99.90;;;;;;5033088;28;20460;-76
2021/12/28 11:00:28;;;;;;;12.40;12.00;;;13.80;99.90;;;;;;5033150;28;20453;-76
2021/12/28 11:03:23;;;;;;;11.50;11.20;;;13.80;99.90;;;;;;5032706;28;20455;-76
2021/12/28 11:05:52;;;;;;;11.80;11.50;;;14.20;99.90;;;;;;5038051;28;20992;-77
2021/12/28 11:08:22;;;;;;;11.90;11.60;;;14.60;99.90;;;;;;5052728;28;20448;-78
2021/12/28 11:10:53;;;;;;;12.00;11.60;;;14.30;99.90;;;;;;5052781;28;20448;-77
2021/12/28 11:13:21;;;;;;;10.80;10.50;;;14.40;99.90;;;;;;5052596;28;20491;-79
2021/12/28 11:15:48;;;;;;;11.20;10.90;;;15.20;99.90;;;;;;5052498;28;20456;-79
2021/12/28 11:18:24;;;;;;;11.20;10.90;;;16.00;99.90;;;;;;5052435;28;20554;-79
2021/12/28 11:20:53;;;;;;;11.70;11.30;;;15.80;99.90;;;;;;5052435;28;20451;-79
2021/12/28 11:23:24;;;;;;;11.30;11.00;;;15.90;99.90;;;;;;5052261;28;20451;-79
2021/12/28 11:26:11;;;;;;;11.63;11.33;;;16.00;99.90;;;;;;5051977;28;20448;-80
2021/12/28 11:28:40;;;;;;;11.97;11.57;;;15.60;99.90;;;;;;5051997;28;20447;-78
2021/12/28 11:31:10;;;;;;;11.33;11.03;;;15.40;99.90;;;;;;5052173;28;20479;-78
2021/12/28 11:33:53;;;;;;;11.53;11.13;;;14.90;99.90;;;;;;5052223;28;20496;-77
2021/12/28 11:36:22;;;;;;;11.10;10.80;;;15.10;99.90;;;;;;5052240;28;20475;-78
2021/12/28 11:38:51;;;;;;;11.40;11.10;;;15.60;99.90;;;;;;5051924;28;20444;-78
2021/12/28 11:41:18;;;;;;;11.27;10.83;;;15.60;99.90;;;;;;5052226;28;20471;-78
2021/12/28 11:43:46;;;;;;;11.37;11.07;;;15.20;99.90;;;;;;5052076;28;20447;-77
2021/12/28 11:46:13;;;;;;;12.23;11.83;;;14.90;99.90;;;;;;5051938;28;20460;-77
2021/12/28 11:48:40;;;;;;;11.87;11.47;;;14.60;99.90;;;;;;5051878;28;20510;-77
2021/12/28 11:51:07;;;;;;;12.17;11.77;;;14.50;99.90;;;;;;5051832;28;20466;-77
2021/12/28 11:53:37;;;;;;;11.53;11.20;;;14.40;99.90;;;;;;5051892;28;20549;-78
2021/12/28 11:56:07;;;;;;;12.27;11.87;;;14.30;99.90;;;;;;5051797;28;20459;-77
2021/12/28 11:59:04;;;;;;;12.00;11.60;;;14.30;99.90;;;;;;5051893;28;20455;-77
2021/12/28 12:01:54;;;;;;;11.30;10.80;;;14.40;99.90;;;;;;5051673;28;20467;-78
2021/12/28 12:04:56;;;;;;;11.90;11.50;;;14.40;99.90;;;;;;5051834;28;20819;-79
2021/12/28 12:07:36;;;;;;;12.70;12.30;;;14.20;99.90;;;;;;5031701;28;20883;-79
2021/12/28 12:10:36;;;;;;;12.77;12.37;;;14.00;99.90;;;;;;5031575;28;20457;-79
2021/12/28 12:13:18;;;;;;;12.07;11.67;;;14.10;99.90;;;;;;5025844;28;20480;-78
2021/12/28 12:15:47;;;;;;;13.17;12.57;;;14.00;99.90;;;;;;5031618;28;20449;-81
2021/12/28 12:18:17;;;;;;;15.33;14.83;;;14.00;99.90;;;;;;5031379;28;20457;-78
2021/12/28 12:20:52;;;;;;;15.97;15.43;;;13.90;99.90;;;;;;5031666;28;20457;-78
2021/12/28 12:23:22;;;;;;;15.50;15.00;;;13.50;99.90;;;;;;5031513;28;20444;-76
2021/12/28 12:25:59;;;;;;;15.63;15.13;;;13.40;99.90;;;;;;5031401;28;20452;-77
2021/12/28 12:28:47;;;;;;;15.27;14.77;;;13.30;99.90;;;;;;5031279;28;20503;-77
2021/12/28 12:31:24;;;;;;;16.63;16.13;;;13.10;99.90;;;;;;5031376;28;20495;-78
2021/12/28 12:33:50;;;;;;;20.33;19.63;;;12.90;99.90;;;;;;5031389;28;20488;-77
2021/12/28 12:36:21;;;;;;;20.97;20.17;;;12.70;99.90;;;;;;5035710;28;20495;-81
2021/12/28 12:38:48;;;;;;;18.87;18.27;;;12.60;99.90;;;;;;5051007;28;20448;-79
2021/12/28 12:41:18;;;;;;;19.40;18.60;;;12.60;99.90;;;;;;5051077;28;20535;-77